sensor_id;sensor_type;location;lat;lon;timestamp;pressure;altitude;pressure_sealevel;temperature;humidity
30682;BME280;17439;48.092;11.842;2023-05-22T00:01:48;94972.06;;;18.94;48.34
30682;BME280;17439;48.092;11.842;2023-05-22T00:04:15;94970.84;;;18.88;48.59
30682;BME280;17439;48.092;11.842;2023-05-22T00:06:42;94976.63;;;18.82;48.33
30682;BME280;17439;48.092;11.842;2023-05-22T00:09:08;94975.38;;;18.76;48.37
30682;BME280;17439;48.092;11.842;2023-05-22T00:11:35;94972.97;;;18.71;48.39
30682;BME280;17439;48.092;11.842;2023-05-22T00:14:02;94974.09;;;18.66;48.37
30682;BME280;17439;48.092;11.842;2023-05-22T00:16:29;94970.09;;;18.60;48.86
30682;BME280;17439;48.092;11.842;2023-05-22T00:18:56;94967.69;;;18.55;48.74
30682;BME280;17439;48.092;11.842;2023-05-22T00:21:23;94972.72;;;18.49;48.75
30682;BME280;17439;48.092;11.842;2023-05-22T00:23:49;94975.00;;;18.44;49.13
30682;BME280;17439;48.092;11.842;2023-05-22T00:26:16;94976.13;;;18.39;48.96
30682;BME280;17439;48.092;11.842;2023-05-22T00:28:43;94981.94;;;18.34;49.16
30682;BME280;17439;48.092;11.842;2023-05-22T00:31:09;94979.88;;;18.27;49.30
30682;BME280;17439;48.092;11.842;2023-05-22T00:33:36;94982.19;;;18.22;49.21
30682;BME280;17439;48.092;11.842;2023-05-22T00:36:04;94984.44;;;18.16;49.23
30682;BME280;17439;48.092;11.842;2023-05-22T00:38:32;94983.97;;;18.10;49.69
30682;BME280;17439;48.092;11.842;2023-05-22T00:41:01;94979.59;;;18.06;49.72
30682;BME280;17439;48.092;11.842;2023-05-22T00:43:28;94977.56;;;17.99;49.93
30682;BME280;17439;48.092;11.842;2023-05-22T00:45:55;94976.72;;;17.95;49.77
30682;BME280;17439;48.092;11.842;2023-05-22T00:48:22;94978.97;;;17.89;49.80
30682;BME280;17439;48.092;11.842;2023-05-22T00:50:49;94972.63;;;17.85;49.96
30682;BME280;17439;48.092;11.842;2023-05-22T00:53:20;94968.25;;;17.81;51.62
30682;BME280;17439;48.092;11.842;2023-05-22T00:55:48;94977.97;;;17.78;50.26
30682;BME280;17439;48.092;11.842;2023-05-22T00:58:16;94970.84;;;17.73;50.61
30682;BME280;17439;48.092;11.842;2023-05-22T01:00:44;94971.09;;;17.61;51.93
30682;BME280;17439;48.092;11.842;2023-05-22T01:05:44;94964.78;;;17.61;50.70
30682;BME280;17439;48.092;11.842;2023-05-22T01:08:11;94966.34;;;17.58;50.81
30682;BME280;17439;48.092;11.842;2023-05-22T01:10:38;94960.38;;;17.52;50.95
30682;BME280;17439;48.092;11.842;2023-05-22T01:13:11;94970.38;;;17.41;52.11
30682;BME280;17439;48.092;11.842;2023-05-22T01:21:57;94981.19;;;17.34;52.18
30682;BME280;17439;48.092;11.842;2023-05-22T01:24:40;94989.00;;;17.32;52.14
30682;BME280;17439;48.092;11.842;2023-05-22T01:27:33;94986.56;;;17.27;53.13
30682;BME280;17439;48.092;11.842;2023-05-22T01:33:06;94992.78;;;17.23;51.29
30682;BME280;17439;48.092;11.842;2023-05-22T01:35:37;94980.56;;;17.21;52.49
30682;BME280;17439;48.092;11.842;2023-05-22T01:38:06;94991.53;;;17.21;51.88
30682;BME280;17439;48.092;11.842;2023-05-22T01:40:35;94990.34;;;17.18;51.80
30682;BME280;17439;48.092;11.842;2023-05-22T01:43:02;94993.44;;;17.17;51.96
30682;BME280;17439;48.092;11.842;2023-05-22T01:45:29;94992.63;;;17.16;52.27
30682;BME280;17439;48.092;11.842;2023-05-22T01:47:57;94994.59;;;17.16;52.06
30682;BME280;17439;48.092;11.842;2023-05-22T01:50:24;94987.91;;;17.13;52.09
30682;BME280;17439;48.092;11.842;2023-05-22T01:53:07;94985.53;;;17.12;53.48
30682;BME280;17439;48.092;11.842;2023-05-22T01:55:44;94986.69;;;17.11;53.60
30682;BME280;17439;48.092;11.842;2023-05-22T02:00:55;94993.66;;;17.08;53.49
30682;BME280;17439;48.092;11.842;2023-05-22T02:03:26;94999.13;;;17.08;53.81
30682;BME280;17439;48.092;11.842;2023-05-22T02:05:58;94994.84;;;17.07;53.25
30682;BME280;17439;48.092;11.842;2023-05-22T02:08:26;94999.50;;;17.07;52.45
30682;BME280;17439;48.092;11.842;2023-05-22T02:10:54;94999.06;;;17.04;52.35
30682;BME280;17439;48.092;11.842;2023-05-22T02:13:22;95004.13;;;17.02;52.41
30682;BME280;17439;48.092;11.842;2023-05-22T02:15:50;95000.94;;;17.00;52.38
30682;BME280;17439;48.092;11.842;2023-05-22T02:18:17;94998.97;;;16.97;52.27
30682;BME280;17439;48.092;11.842;2023-05-22T02:20:45;94996.13;;;16.94;52.66
30682;BME280;17439;48.092;11.842;2023-05-22T02:23:12;95003.16;;;16.91;52.25
30682;BME280;17439;48.092;11.842;2023-05-22T02:25:39;95000.31;;;16.88;52.49
30682;BME280;17439;48.092;11.842;2023-05-22T02:28:05;95005.28;;;16.82;52.38
30682;BME280;17439;48.092;11.842;2023-05-22T02:30:32;95006.00;;;16.79;52.45
30682;BME280;17439;48.092;11.842;2023-05-22T02:32:59;95011.41;;;16.75;52.53
30682;BME280;17439;48.092;11.842;2023-05-22T02:35:25;95019.53;;;16.72;52.55
30682;BME280;17439;48.092;11.842;2023-05-22T02:37:52;95015.50;;;16.65;52.64
30682;BME280;17439;48.092;11.842;2023-05-22T02:40:19;95021.25;;;16.60;52.56
30682;BME280;17439;48.092;11.842;2023-05-22T02:42:46;95012.94;;;16.53;52.89
30682;BME280;17439;48.092;11.842;2023-05-22T02:45:13;95014.00;;;16.48;52.58
30682;BME280;17439;48.092;11.842;2023-05-22T02:47:40;95022.50;;;16.43;52.85
30682;BME280;17439;48.092;11.842;2023-05-22T02:50:07;95015.38;;;16.39;53.01
30682;BME280;17439;48.092;11.842;2023-05-22T02:52:34;95020.75;;;16.35;52.95
30682;BME280;17439;48.092;11.842;2023-05-22T02:55:02;95013.25;;;16.32;52.97
30682;BME280;17439;48.092;11.842;2023-05-22T02:57:29;95017.50;;;16.29;52.98
30682;BME280;17439;48.092;11.842;2023-05-22T02:59:57;95016.50;;;16.18;53.20
30682;BME280;17439;48.092;11.842;2023-05-22T03:02:25;95017.78;;;16.24;53.21
30682;BME280;17439;48.092;11.842;2023-05-22T03:04:51;95015.78;;;16.21;53.31
30682;BME280;17439;48.092;11.842;2023-05-22T03:07:18;95022.75;;;16.19;53.84
30682;BME280;17439;48.092;11.842;2023-05-22T03:09:45;95019.56;;;16.17;53.83
30682;BME280;17439;48.092;11.842;2023-05-22T03:12:11;95020.28;;;16.13;54.04
30682;BME280;17439;48.092;11.842;2023-05-22T03:14:38;95019.06;;;16.11;53.81
30682;BME280;17439;48.092;11.842;2023-05-22T03:17:05;95023.31;;;16.08;53.73
30682;BME280;17439;48.092;11.842;2023-05-22T03:19:32;95018.97;;;16.07;53.76
30682;BME280;17439;48.092;11.842;2023-05-22T03:21:59;95024.81;;;16.06;53.89
30682;BME280;17439;48.092;11.842;2023-05-22T03:24:25;95028.69;;;16.05;54.09
30682;BME280;17439;48.092;11.842;2023-05-22T03:26:52;95025.16;;;16.04;54.03
30682;BME280;17439;48.092;11.842;2023-05-22T03:29:29;95021.19;;;16.02;54.53
30682;BME280;17439;48.092;11.842;2023-05-22T03:31:56;95015.28;;;16.00;54.37
30682;BME280;17439;48.092;11.842;2023-05-22T03:34:24;95022.72;;;15.99;54.57
30682;BME280;17439;48.092;11.842;2023-05-22T03:36:50;95014.88;;;15.98;54.38
30682;BME280;17439;48.092;11.842;2023-05-22T03:39:17;95021.47;;;15.96;54.78
30682;BME280;17439;48.092;11.842;2023-05-22T03:41:53;95019.91;;;15.95;54.60
30682;BME280;17439;48.092;11.842;2023-05-22T03:44:21;95018.31;;;15.94;54.57
30682;BME280;17439;48.092;11.842;2023-05-22T03:46:48;95020.59;;;15.92;54.48
30682;BME280;17439;48.092;11.842;2023-05-22T03:49:15;95020.59;;;15.92;54.79
30682;BME280;17439;48.092;11.842;2023-05-22T03:51:42;95025.25;;;15.92;54.83
30682;BME280;17439;48.092;11.842;2023-05-22T03:54:09;95022.53;;;15.92;54.61
30682;BME280;17439;48.092;11.842;2023-05-22T03:56:36;95026.50;;;15.94;54.56
30682;BME280;17439;48.092;11.842;2023-05-22T03:59:02;95036.31;;;15.95;54.73
30682;BME280;17439;48.092;11.842;2023-05-22T04:01:29;95034.78;;;15.98;54.80
30682;BME280;17439;48.092;11.842;2023-05-22T04:03:56;95042.63;;;16.00;54.86
30682;BME280;17439;48.092;11.842;2023-05-22T04:06:23;95042.28;;;16.01;54.88
30682;BME280;17439;48.092;11.842;2023-05-22T04:08:49;95052.84;;;16.03;55.14
30682;BME280;17439;48.092;11.842;2023-05-22T04:11:16;95050.13;;;16.03;55.36
30682;BME280;17439;48.092;11.842;2023-05-22T04:13:43;95049.41;;;16.06;55.23
30682;BME280;17439;48.092;11.842;2023-05-22T04:16:10;95047.81;;;16.05;55.37
30682;BME280;17439;48.092;11.842;2023-05-22T04:18:37;95049.06;;;16.07;55.75
30682;BME280;17439;48.092;11.842;2023-05-22T04:21:04;95041.63;;;16.08;55.68
30682;BME280;17439;48.092;11.842;2023-05-22T04:23:31;95045.25;;;16.12;55.72
30682;BME280;17439;48.092;11.842;2023-05-22T04:25:57;95044.53;;;16.15;56.04
30682;BME280;17439;48.092;11.842;2023-05-22T04:28:24;95040.38;;;16.21;56.21
30682;BME280;17439;48.092;11.842;2023-05-22T04:30:51;95046.47;;;16.30;56.60
30682;BME280;17439;48.092;11.842;2023-05-22T04:33:17;95042.78;;;16.42;56.84
30682;BME280;17439;48.092;11.842;2023-05-22T04:35:44;95040.72;;;16.55;56.63
30682;BME280;17439;48.092;11.842;2023-05-22T04:38:11;95049.22;;;16.69;56.57
30682;BME280;17439;48.092;11.842;2023-05-22T04:40:37;95041.28;;;16.84;56.00
30682;BME280;17439;48.092;11.842;2023-05-22T04:43:04;95047.78;;;16.95;55.60
30682;BME280;17439;48.092;11.842;2023-05-22T04:45:31;95055.06;;;17.07;55.33
30682;BME280;17439;48.092;11.842;2023-05-22T04:47:58;95049.72;;;17.14;54.86
30682;BME280;17439;48.092;11.842;2023-05-22T04:50:25;95052.25;;;17.23;54.57
30682;BME280;17439;48.092;11.842;2023-05-22T04:52:52;95051.22;;;17.31;54.47
30682;BME280;17439;48.092;11.842;2023-05-22T04:55:19;95063.47;;;17.37;54.12
30682;BME280;17439;48.092;11.842;2023-05-22T04:57:46;95063.16;;;17.43;53.96
30682;BME280;17439;48.092;11.842;2023-05-22T05:00:13;95056.22;;;17.49;53.98
30682;BME280;17439;48.092;11.842;2023-05-22T05:02:40;95060.59;;;17.53;53.97
30682;BME280;17439;48.092;11.842;2023-05-22T05:05:07;95055.59;;;17.59;53.92
30682;BME280;17439;48.092;11.842;2023-05-22T05:07:38;95059.63;;;17.65;54.34
30682;BME280;17439;48.092;11.842;2023-05-22T05:10:08;95065.59;;;17.71;53.70
30682;BME280;17439;48.092;11.842;2023-05-22T05:12:35;95059.38;;;17.74;53.93
30682;BME280;17439;48.092;11.842;2023-05-22T05:15:02;95064.19;;;17.81;54.09
30682;BME280;17439;48.092;11.842;2023-05-22T05:17:29;95061.13;;;17.86;54.11
30682;BME280;17439;48.092;11.842;2023-05-22T05:19:56;95060.06;;;17.90;54.19
30682;BME280;17439;48.092;11.842;2023-05-22T05:22:22;95067.19;;;17.95;54.21
30682;BME280;17439;48.092;11.842;2023-05-22T05:24:49;95061.75;;;17.99;54.57
30682;BME280;17439;48.092;11.842;2023-05-22T05:27:16;95067.78;;;18.08;54.46
30682;BME280;17439;48.092;11.842;2023-05-22T05:29:43;95060.03;;;18.13;54.30
30682;BME280;17439;48.092;11.842;2023-05-22T05:32:17;95063.28;;;18.23;54.43
30682;BME280;17439;48.092;11.842;2023-05-22T05:35:05;95062.66;;;18.33;54.45
30682;BME280;17439;48.092;11.842;2023-05-22T05:37:44;95062.03;;;18.43;54.39
30682;BME280;17439;48.092;11.842;2023-05-22T05:40:11;95062.16;;;18.54;54.15
30682;BME280;17439;48.092;11.842;2023-05-22T05:42:43;95063.91;;;18.66;53.95
30682;BME280;17439;48.092;11.842;2023-05-22T05:45:12;95060.09;;;18.74;53.94
30682;BME280;17439;48.092;11.842;2023-05-22T05:47:38;95054.78;;;18.85;53.69
30682;BME280;17439;48.092;11.842;2023-05-22T05:50:06;95056.47;;;18.97;53.41
30682;BME280;17439;48.092;11.842;2023-05-22T05:52:36;95059.34;;;19.08;53.06
30682;BME280;17439;48.092;11.842;2023-05-22T05:55:08;95052.00;;;19.19;52.62
30682;BME280;17439;48.092;11.842;2023-05-22T05:57:36;95059.94;;;19.28;52.11
30682;BME280;17439;48.092;11.842;2023-05-22T06:00:06;95063.22;;;19.40;52.12
30682;BME280;17439;48.092;11.842;2023-05-22T06:02:41;95057.03;;;19.51;52.29
30682;BME280;17439;48.092;11.842;2023-05-22T06:05:22;95064.22;;;19.63;51.74
30682;BME280;17439;48.092;11.842;2023-05-22T06:07:55;95061.56;;;19.73;51.68
30682;BME280;17439;48.092;11.842;2023-05-22T06:10:22;95053.81;;;19.83;51.83
30682;BME280;17439;48.092;11.842;2023-05-22T06:12:57;95057.44;;;19.94;51.87
30682;BME280;17439;48.092;11.842;2023-05-22T06:15:24;95061.44;;;20.04;51.31
30682;BME280;17439;48.092;11.842;2023-05-22T06:17:51;95061.53;;;20.15;51.17
30682;BME280;17439;48.092;11.842;2023-05-22T06:20:18;95065.53;;;20.24;51.16
30682;BME280;17439;48.092;11.842;2023-05-22T06:22:45;95055.75;;;20.34;51.12
30682;BME280;17439;48.092;11.842;2023-05-22T06:25:12;95064.47;;;20.43;50.10
30682;BME280;17439;48.092;11.842;2023-05-22T06:27:38;95058.66;;;20.52;49.64
30682;BME280;17439;48.092;11.842;2023-05-22T06:30:06;95055.94;;;20.63;49.18
30682;BME280;17439;48.092;11.842;2023-05-22T06:32:37;95063.09;;;20.71;49.25
30682;BME280;17439;48.092;11.842;2023-05-22T06:35:05;95063.91;;;20.79;49.10
30682;BME280;17439;48.092;11.842;2023-05-22T06:37:32;95072.22;;;20.86;48.96
30682;BME280;17439;48.092;11.842;2023-05-22T06:39:59;95066.72;;;20.93;48.18
30682;BME280;17439;48.092;11.842;2023-05-22T06:42:32;95061.66;;;21.02;48.49
30682;BME280;17439;48.092;11.842;2023-05-22T06:45:18;95072.31;;;21.11;48.35
30682;BME280;17439;48.092;11.842;2023-05-22T06:48:00;95058.97;;;21.20;48.21
30682;BME280;17439;48.092;11.842;2023-05-22T06:50:29;95073.97;;;21.30;47.69
30682;BME280;17439;48.092;11.842;2023-05-22T06:52:56;95064.91;;;21.37;47.36
30682;BME280;17439;48.092;11.842;2023-05-22T06:55:23;95063.75;;;21.42;47.64
30682;BME280;17439;48.092;11.842;2023-05-22T06:58:01;95073.22;;;21.48;47.48
30682;BME280;17439;48.092;11.842;2023-05-22T07:00:29;95066.97;;;21.58;47.63
30682;BME280;17439;48.092;11.842;2023-05-22T07:03:06;95068.53;;;21.63;46.91
30682;BME280;17439;48.092;11.842;2023-05-22T07:06:00;95067.75;;;21.69;47.01
30682;BME280;17439;48.092;11.842;2023-05-22T07:08:27;95073.28;;;21.77;47.22
30682;BME280;17439;48.092;11.842;2023-05-22T07:10:56;95076.44;;;21.82;47.12
30682;BME280;17439;48.092;11.842;2023-05-22T07:13:22;95077.25;;;21.90;46.67
30682;BME280;17439;48.092;11.842;2023-05-22T07:15:49;95083.56;;;21.94;46.07
30682;BME280;17439;48.092;11.842;2023-05-22T07:18:16;95083.16;;;22.03;46.37
30682;BME280;17439;48.092;11.842;2023-05-22T07:20:43;95082.38;;;22.06;45.75
30682;BME280;17439;48.092;11.842;2023-05-22T07:23:14;95085.94;;;22.10;45.74
30682;BME280;17439;48.092;11.842;2023-05-22T07:25:41;95093.41;;;22.13;45.53
30682;BME280;17439;48.092;11.842;2023-05-22T07:28:10;95086.31;;;22.16;45.43
30682;BME280;17439;48.092;11.842;2023-05-22T07:30:48;95080.81;;;22.19;45.63
30682;BME280;17439;48.092;11.842;2023-05-22T07:33:15;95080.41;;;22.24;45.78
30682;BME280;17439;48.092;11.842;2023-05-22T07:35:43;95079.22;;;22.29;45.42
30682;BME280;17439;48.092;11.842;2023-05-22T07:38:10;95079.63;;;22.35;45.42
30682;BME280;17439;48.092;11.842;2023-05-22T07:40:40;95080.81;;;22.37;45.25
30682;BME280;17439;48.092;11.842;2023-05-22T07:43:07;95074.88;;;22.42;45.61
30682;BME280;17439;48.092;11.842;2023-05-22T07:45:34;95081.19;;;22.50;45.41
30682;BME280;17439;48.092;11.842;2023-05-22T07:48:05;95089.88;;;22.56;45.48
30682;BME280;17439;48.092;11.842;2023-05-22T07:50:34;95085.50;;;22.62;45.29
30682;BME280;17439;48.092;11.842;2023-05-22T07:53:02;95081.94;;;22.65;45.06
30682;BME280;17439;48.092;11.842;2023-05-22T07:55:32;95083.09;;;22.71;45.20
30682;BME280;17439;48.092;11.842;2023-05-22T07:58:02;95078.34;;;22.79;45.59
30682;BME280;17439;48.092;11.842;2023-05-22T08:00:33;95074.78;;;22.86;44.81
30682;BME280;17439;48.092;11.842;2023-05-22T08:03:00;95073.59;;;22.90;44.93
30682;BME280;17439;48.092;11.842;2023-05-22T08:05:26;95077.13;;;22.98;44.70
30682;BME280;17439;48.092;11.842;2023-05-22T08:07:53;95071.16;;;23.03;45.07
30682;BME280;17439;48.092;11.842;2023-05-22T08:10:20;95063.66;;;23.07;44.82
30682;BME280;17439;48.092;11.842;2023-05-22T08:12:47;95060.50;;;23.12;44.62
30682;BME280;17439;48.092;11.842;2023-05-22T08:15:14;95065.22;;;23.19;44.79
30682;BME280;17439;48.092;11.842;2023-05-22T08:17:41;95066.00;;;23.23;44.09
30682;BME280;17439;48.092;11.842;2023-05-22T08:20:08;95060.44;;;23.27;44.15
30682;BME280;17439;48.092;11.842;2023-05-22T08:22:37;95068.69;;;23.30;44.30
30682;BME280;17439;48.092;11.842;2023-05-22T08:25:04;95061.59;;;23.33;44.19
30682;BME280;17439;48.092;11.842;2023-05-22T08:27:30;95065.13;;;23.37;44.52
30682;BME280;17439;48.092;11.842;2023-05-22T08:29:57;95059.97;;;23.39;44.33
30682;BME280;17439;48.092;11.842;2023-05-22T08:32:24;95067.44;;;23.46;43.91
30682;BME280;17439;48.092;11.842;2023-05-22T08:34:51;95063.47;;;23.50;44.40
30682;BME280;17439;48.092;11.842;2023-05-22T08:37:17;95063.03;;;23.55;43.82
30682;BME280;17439;48.092;11.842;2023-05-22T08:39:44;95061.06;;;23.60;43.70
30682;BME280;17439;48.092;11.842;2023-05-22T08:42:11;95054.34;;;23.61;43.86
30682;BME280;17439;48.092;11.842;2023-05-22T08:44:38;95054.31;;;23.64;43.82
30682;BME280;17439;48.092;11.842;2023-05-22T08:47:05;95061.00;;;23.67;44.21
30682;BME280;17439;48.092;11.842;2023-05-22T08:49:32;95059.00;;;23.71;44.11
30682;BME280;17439;48.092;11.842;2023-05-22T08:52:12;95056.16;;;23.78;44.22
30682;BME280;17439;48.092;11.842;2023-05-22T08:54:41;95054.97;;;23.86;44.57
30682;BME280;17439;48.092;11.842;2023-05-22T08:57:08;95049.00;;;23.92;44.00
30682;BME280;17439;48.092;11.842;2023-05-22T08:59:36;95048.94;;;23.99;44.40
30682;BME280;17439;48.092;11.842;2023-05-22T09:02:03;95046.13;;;24.06;44.19
30682;BME280;17439;48.092;11.842;2023-05-22T09:04:32;95048.81;;;24.13;44.43
30682;BME280;17439;48.092;11.842;2023-05-22T09:06:59;95045.16;;;24.23;43.71
30682;BME280;17439;48.092;11.842;2023-05-22T09:09:25;95046.31;;;24.30;42.87
30682;BME280;17439;48.092;11.842;2023-05-22T09:11:53;95048.63;;;24.35;43.38
30682;BME280;17439;48.092;11.842;2023-05-22T09:14:20;95048.97;;;24.40;43.19
30682;BME280;17439;48.092;11.842;2023-05-22T09:16:48;95049.66;;;24.48;42.68
30682;BME280;17439;48.092;11.842;2023-05-22T09:19:17;95045.25;;;24.54;42.28
30682;BME280;17439;48.092;11.842;2023-05-22T09:21:43;95042.50;;;24.54;42.46
30682;BME280;17439;48.092;11.842;2023-05-22T09:24:10;95042.91;;;24.56;42.31
30682;BME280;17439;48.092;11.842;2023-05-22T09:26:38;95048.00;;;24.61;42.51
30682;BME280;17439;48.092;11.842;2023-05-22T09:29:07;95051.50;;;24.66;42.60
30682;BME280;17439;48.092;11.842;2023-05-22T09:31:41;95035.63;;;24.70;42.31
30682;BME280;17439;48.092;11.842;2023-05-22T09:34:10;95040.72;;;24.75;42.68
30682;BME280;17439;48.092;11.842;2023-05-22T09:36:37;95041.06;;;24.80;42.87
30682;BME280;17439;48.092;11.842;2023-05-22T09:39:04;95036.25;;;24.85;42.33
30682;BME280;17439;48.092;11.842;2023-05-22T09:41:36;95045.28;;;24.92;41.85
30682;BME280;17439;48.092;11.842;2023-05-22T09:44:13;95040.84;;;24.98;41.51
30682;BME280;17439;48.092;11.842;2023-05-22T09:46:41;95042.31;;;25.07;41.74
30682;BME280;17439;48.092;11.842;2023-05-22T09:49:09;95040.66;;;25.13;42.04
30682;BME280;17439;48.092;11.842;2023-05-22T09:51:43;95037.44;;;25.18;41.39
30682;BME280;17439;48.092;11.842;2023-05-22T09:54:11;95045.66;;;25.25;41.61
30682;BME280;17439;48.092;11.842;2023-05-22T09:56:40;95045.97;;;25.34;41.24
30682;BME280;17439;48.092;11.842;2023-05-22T09:59:11;95047.50;;;25.39;41.76
30682;BME280;17439;48.092;11.842;2023-05-22T10:01:39;95044.97;;;25.48;41.42
30682;BME280;17439;48.092;11.842;2023-05-22T10:04:06;95041.91;;;25.43;42.29
30682;BME280;17439;48.092;11.842;2023-05-22T10:06:38;95040.88;;;25.60;41.90
30682;BME280;17439;48.092;11.842;2023-05-22T10:09:09;95050.22;;;25.70;40.71
30682;BME280;17439;48.092;11.842;2023-05-22T10:11:43;95041.00;;;25.77;40.90
30682;BME280;17439;48.092;11.842;2023-05-22T10:14:10;95041.28;;;25.86;39.52
30682;BME280;17439;48.092;11.842;2023-05-22T10:16:38;95038.84;;;25.88;40.68
30682;BME280;17439;48.092;11.842;2023-05-22T10:19:06;95039.16;;;25.94;40.10
30682;BME280;17439;48.092;11.842;2023-05-22T10:21:34;95043.84;;;26.00;40.05
30682;BME280;17439;48.092;11.842;2023-05-22T10:24:01;95033.25;;;25.92;41.08
30682;BME280;17439;48.092;11.842;2023-05-22T10:26:28;95035.03;;;26.05;40.32
30682;BME280;17439;48.092;11.842;2023-05-22T10:29:09;95034.56;;;26.11;40.91
30682;BME280;17439;48.092;11.842;2023-05-22T10:31:57;95031.72;;;26.14;40.51
30682;BME280;17439;48.092;11.842;2023-05-22T10:34:39;95031.06;;;26.30;40.26
30682;BME280;17439;48.092;11.842;2023-05-22T10:40:29;95025.31;;;26.41;39.85
30682;BME280;17439;48.092;11.842;2023-05-22T10:42:59;95031.59;;;26.45;38.95
30682;BME280;17439;48.092;11.842;2023-05-22T10:45:27;95034.59;;;26.54;39.55
30682;BME280;17439;48.092;11.842;2023-05-22T10:48:10;95022.69;;;26.54;39.54
30682;BME280;17439;48.092;11.842;2023-05-22T10:50:38;95020.16;;;26.63;39.35
30682;BME280;17439;48.092;11.842;2023-05-22T10:53:27;95023.72;;;26.64;39.80
30682;BME280;17439;48.092;11.842;2023-05-22T10:55:57;95018.09;;;26.67;39.69
30682;BME280;17439;48.092;11.842;2023-05-22T10:58:27;95019.09;;;26.77;39.55
30682;BME280;17439;48.092;11.842;2023-05-22T11:01:16;95015.03;;;26.82;39.69
30682;BME280;17439;48.092;11.842;2023-05-22T11:04:09;95019.63;;;26.92;39.97
30682;BME280;17439;48.092;11.842;2023-05-22T11:06:43;95019.81;;;27.01;38.95
30682;BME280;17439;48.092;11.842;2023-05-22T11:09:25;95011.34;;;27.08;38.77
30682;BME280;17439;48.092;11.842;2023-05-22T11:12:12;95004.19;;;27.07;39.77
30682;BME280;17439;48.092;11.842;2023-05-22T11:14:39;95006.53;;;27.09;40.01
30682;BME280;17439;48.092;11.842;2023-05-22T11:17:05;95003.34;;;27.10;39.62
30682;BME280;17439;48.092;11.842;2023-05-22T11:19:32;95004.06;;;27.14;38.96
30682;BME280;17439;48.092;11.842;2023-05-22T11:22:00;95002.25;;;27.24;38.52
30682;BME280;17439;48.092;11.842;2023-05-22T11:24:31;95006.25;;;27.23;38.17
30682;BME280;17439;48.092;11.842;2023-05-22T11:27:04;95010.50;;;27.28;38.69
30682;BME280;17439;48.092;11.842;2023-05-22T11:29:32;95010.09;;;27.29;38.51
30682;BME280;17439;48.092;11.842;2023-05-22T11:32:00;95009.69;;;27.31;39.10
30682;BME280;17439;48.092;11.842;2023-05-22T11:34:27;95004.50;;;27.33;39.40
30682;BME280;17439;48.092;11.842;2023-05-22T11:36:58;95004.66;;;27.42;39.13
30682;BME280;17439;48.092;11.842;2023-05-22T11:39:25;95005.81;;;27.45;38.96
30682;BME280;17439;48.092;11.842;2023-05-22T11:41:52;94995.81;;;27.47;38.94
30682;BME280;17439;48.092;11.842;2023-05-22T11:44:19;94992.09;;;27.54;38.33
30682;BME280;17439;48.092;11.842;2023-05-22T11:46:45;94992.44;;;27.56;39.01
30682;BME280;17439;48.092;11.842;2023-05-22T11:49:12;94988.88;;;27.56;38.99
30682;BME280;17439;48.092;11.842;2023-05-22T11:51:39;94993.22;;;27.57;39.32
30682;BME280;17439;48.092;11.842;2023-05-22T11:54:06;94990.97;;;27.68;38.67
30682;BME280;17439;48.092;11.842;2023-05-22T11:56:33;94990.53;;;27.69;38.86
30682;BME280;17439;48.092;11.842;2023-05-22T11:59:00;94981.66;;;27.75;38.98
30682;BME280;17439;48.092;11.842;2023-05-22T12:01:26;94974.81;;;27.79;39.07
30682;BME280;17439;48.092;11.842;2023-05-22T12:03:53;94986.03;;;27.92;38.69
30682;BME280;17439;48.092;11.842;2023-05-22T12:06:20;94987.00;;;28.02;38.58
30682;BME280;17439;48.092;11.842;2023-05-22T12:08:47;94984.63;;;28.17;37.18
30682;BME280;17439;48.092;11.842;2023-05-22T12:11:14;94978.63;;;28.18;38.01
30682;BME280;17439;48.092;11.842;2023-05-22T12:13:40;94983.22;;;28.25;37.38
30682;BME280;17439;48.092;11.842;2023-05-22T12:16:18;94979.56;;;28.28;37.82
30682;BME280;17439;48.092;11.842;2023-05-22T12:18:45;94984.78;;;28.26;37.73
30682;BME280;17439;48.092;11.842;2023-05-22T12:21:12;94980.19;;;28.19;37.97
30682;BME280;17439;48.092;11.842;2023-05-22T12:23:47;94978.72;;;28.15;37.66
30682;BME280;17439;48.092;11.842;2023-05-22T12:26:14;94983.41;;;28.18;38.48
30682;BME280;17439;48.092;11.842;2023-05-22T12:28:41;94973.47;;;28.17;38.26
30682;BME280;17439;48.092;11.842;2023-05-22T12:31:08;94968.06;;;28.26;37.44
30682;BME280;17439;48.092;11.842;2023-05-22T12:33:35;94967.09;;;28.33;37.29
30682;BME280;17439;48.092;11.842;2023-05-22T12:36:07;94969.59;;;28.44;37.01
30682;BME280;17439;48.092;11.842;2023-05-22T12:38:36;94960.47;;;28.43;37.30
30682;BME280;17439;48.092;11.842;2023-05-22T12:41:03;94964.97;;;28.53;36.88
30682;BME280;17439;48.092;11.842;2023-05-22T12:43:30;94961.72;;;28.55;36.62
30682;BME280;17439;48.092;11.842;2023-05-22T12:45:57;94955.56;;;28.64;35.96
30682;BME280;17439;48.092;11.842;2023-05-22T12:48:27;94961.56;;;28.62;36.83
30682;BME280;17439;48.092;11.842;2023-05-22T12:50:54;94959.44;;;28.66;36.68
30682;BME280;17439;48.092;11.842;2023-05-22T12:53:21;94957.03;;;28.68;36.44
30682;BME280;17439;48.092;11.842;2023-05-22T12:55:47;94955.69;;;28.73;36.20
30682;BME280;17439;48.092;11.842;2023-05-22T12:58:14;94950.22;;;28.69;36.46
30682;BME280;17439;48.092;11.842;2023-05-22T13:00:41;94944.88;;;28.75;35.89
30682;BME280;17439;48.092;11.842;2023-05-22T13:03:08;94957.69;;;28.72;36.67
30682;BME280;17439;48.092;11.842;2023-05-22T13:05:35;94945.31;;;28.73;36.44
30682;BME280;17439;48.092;11.842;2023-05-22T13:08:02;94948.88;;;28.74;37.29
30682;BME280;17439;48.092;11.842;2023-05-22T13:10:28;94944.19;;;28.71;36.40
30682;BME280;17439;48.092;11.842;2023-05-22T13:12:55;94939.06;;;28.69;36.89
30682;BME280;17439;48.092;11.842;2023-05-22T13:15:22;94941.28;;;28.74;36.48
30682;BME280;17439;48.092;11.842;2023-05-22T13:17:48;94945.22;;;28.77;36.10